createdAt,value
2019-05-20T00:00:42.234Z,4.07
2019-05-20T00:03:11.206Z,4.77
2019-05-20T00:05:40.245Z,3.83
2019-05-20T00:08:12.687Z,4.97
2019-05-20T00:10:51.310Z,4.40
2019-05-20T00:13:21.288Z,4.47
2019-05-20T00:15:50.745Z,4.33
2019-05-20T00:18:22.469Z,3.90
2019-05-20T00:20:51.477Z,3.67
2019-05-20T00:23:26.723Z,3.90
2019-05-20T00:25:55.639Z,4.00
2019-05-20T00:28:27.872Z,3.93
2019-05-20T00:31:00.167Z,4.13
2019-05-20T00:33:35.140Z,4.30
2019-05-20T00:36:04.246Z,5.13
2019-05-20T00:38:34.909Z,3.87
2019-05-20T00:41:04.283Z,4.40
2019-05-20T00:43:33.525Z,4.10
2019-05-20T00:46:02.822Z,4.30
2019-05-20T00:48:38.375Z,4.60
2019-05-20T00:51:08.598Z,4.10
2019-05-20T00:53:41.905Z,4.07
2019-05-20T00:56:36.211Z,4.10
2019-05-20T00:59:21.163Z,4.30
2019-05-20T01:01:50.399Z,4.03
2019-05-20T01:04:19.440Z,3.87
2019-05-20T01:06:48.602Z,4.67
2019-05-20T01:09:20.834Z,4.20
2019-05-20T01:11:50.134Z,4.77
2019-05-20T01:14:19.537Z,4.17
2019-05-20T01:20:21.310Z,4.60
2019-05-20T01:22:51.698Z,4.20
2019-05-20T01:26:02.599Z,4.23
2019-05-20T01:28:31.988Z,4.70
2019-05-20T01:31:09.514Z,4.67
2019-05-20T01:38:15.699Z,4.47
2019-05-20T01:40:46.857Z,4.87
2019-05-20T01:43:16.942Z,4.53
2019-05-20T01:45:52.423Z,7.27
2019-05-20T01:48:22.060Z,5.03
2019-05-20T01:50:53.202Z,6.77
2019-05-20T01:53:23.385Z,6.13
2019-05-20T01:56:06.073Z,5.00
2019-05-20T01:58:44.053Z,6.20
2019-05-20T02:01:17.744Z,6.00
2019-05-20T02:10:17.818Z,7.40
2019-05-20T02:12:50.463Z,8.40
2019-05-20T02:19:29.996Z,8.13
2019-05-20T02:22:21.016Z,8.37
2019-05-20T02:29:12.287Z,9.20
2019-05-20T02:31:42.189Z,10.70
2019-05-20T02:34:40.079Z,11.53
2019-05-20T02:37:19.130Z,13.70
2019-05-20T03:14:44.930Z,16.97
2019-05-20T03:17:29.520Z,20.27
2019-05-20T03:20:06.194Z,19.50
2019-05-20T03:25:48.348Z,22.77
2019-05-20T03:32:16.420Z,21.53
2019-05-20T03:34:58.779Z,22.20
2019-05-20T03:42:11.571Z,23.87
2019-05-20T04:13:05.545Z,42.67
2019-05-20T04:19:15.176Z,45.87
2019-05-20T04:25:58.264Z,44.93
2019-05-20T04:29:05.635Z,51.70
2019-05-20T04:45:12.223Z,52.73
2019-05-20T04:48:13.179Z,49.63
2019-05-20T04:54:07.957Z,48.73
2019-05-20T04:57:27.643Z,51.47
2019-05-20T05:03:57.479Z,53.73
2019-05-20T05:21:46.883Z,50.13
2019-05-20T05:47:36.525Z,45.43
2019-05-20T05:50:07.629Z,45.50
2019-05-20T05:52:36.864Z,49.27
2019-05-20T05:55:05.935Z,53.00
2019-05-20T05:57:34.950Z,50.97
2019-05-20T06:00:04.829Z,55.17
2019-05-20T06:02:33.740Z,51.07
2019-05-20T06:05:03.070Z,46.63
2019-05-20T06:07:32.308Z,51.23
2019-05-20T06:10:07.045Z,48.43
2019-05-20T06:12:36.041Z,54.93
2019-05-20T06:15:05.748Z,58.30
2019-05-20T06:17:40.983Z,59.43
2019-05-20T06:20:15.396Z,58.03
2019-05-20T06:22:47.623Z,61.63
2019-05-20T06:25:17.831Z,58.87
2019-05-20T06:27:46.882Z,65.20
2019-05-20T06:30:16.693Z,56.33
2019-05-20T06:32:46.123Z,66.97
2019-05-20T06:35:28.969Z,68.47
2019-05-20T06:37:59.670Z,69.23
2019-05-20T06:40:41.473Z,60.63
2019-05-20T06:43:13.590Z,69.57
2019-05-20T06:45:47.482Z,61.87
2019-05-20T06:48:16.600Z,59.60
2019-05-20T06:50:51.959Z,63.87
2019-05-20T06:53:20.953Z,59.07
2019-05-20T06:55:50.081Z,63.40
2019-05-20T06:58:21.199Z,67.90
2019-05-20T07:00:50.287Z,64.60
2019-05-20T07:03:19.517Z,63.17
2019-05-20T07:05:49.591Z,61.23
2019-05-20T07:08:19.067Z,59.97
2019-05-20T07:10:48.538Z,65.40
2019-05-20T07:13:18.905Z,66.03
2019-05-20T07:15:50.402Z,67.93
2019-05-20T07:18:29.794Z,58.60
2019-05-20T07:20:59.309Z,64.50
2019-05-20T07:23:28.723Z,60.87
2019-05-20T07:25:57.679Z,63.83
2019-05-20T07:28:27.507Z,67.07
2019-05-20T07:30:56.485Z,62.47
2019-05-20T07:33:25.402Z,64.30
2019-05-20T07:35:54.683Z,65.00
2019-05-20T07:38:23.842Z,55.63
2019-05-20T07:40:52.962Z,57.03
2019-05-20T07:43:22.289Z,52.17
2019-05-20T07:45:51.753Z,48.50
2019-05-20T07:48:21.354Z,55.53
2019-05-20T07:50:51.105Z,52.80
2019-05-20T07:53:21.383Z,53.10
2019-05-20T07:56:05.532Z,53.43
2019-05-20T07:58:37.367Z,53.27
2019-05-20T08:01:06.835Z,54.27
2019-05-20T08:03:38.519Z,54.20
2019-05-20T08:06:07.302Z,52.70
2019-05-20T08:08:41.771Z,47.77
2019-05-20T08:11:09.877Z,47.10
2019-05-20T08:14:15.423Z,47.57
2019-05-20T08:16:19.886Z,46.00
2019-05-20T08:18:52.934Z,42.30
2019-05-20T08:21:38.641Z,41.10
2019-05-20T08:24:10.561Z,40.67
2019-05-20T08:26:43.287Z,41.00
2019-05-20T08:29:15.843Z,39.07
2019-05-20T08:31:48.574Z,31.83
2019-05-20T08:34:17.907Z,31.37
2019-05-20T08:36:47.465Z,33.13
2019-05-20T08:39:16.989Z,31.33
2019-05-20T08:41:47.819Z,29.30
2019-05-20T08:44:17.707Z,34.27
2019-05-20T08:46:46.850Z,32.53
2019-05-20T08:49:27.038Z,30.60
2019-05-20T08:51:56.357Z,26.33
2019-05-20T08:54:25.643Z,28.60
2019-05-20T08:56:55.626Z,28.67
2019-05-20T08:59:24.999Z,22.83
2019-05-20T09:01:53.955Z,23.77
2019-05-20T09:04:24.118Z,23.67
2019-05-20T09:06:53.599Z,21.57
2019-05-20T09:09:22.783Z,20.30
2019-05-20T09:11:52.102Z,24.87
2019-05-20T09:14:21.165Z,21.70
2019-05-20T09:16:50.357Z,20.33
2019-05-20T09:19:19.858Z,20.37
2019-05-20T09:21:49.192Z,21.23
2019-05-20T09:24:19.218Z,17.87
2019-05-20T09:26:48.484Z,18.70
2019-05-20T09:29:21.305Z,19.20
2019-05-20T09:31:53.536Z,19.27
2019-05-20T09:34:22.889Z,17.20
2019-05-20T09:36:52.243Z,17.67
2019-05-20T09:39:21.427Z,18.33
2019-05-20T09:41:50.598Z,18.90
2019-05-20T09:44:20.171Z,17.07
2019-05-20T09:46:49.211Z,16.53
2019-05-20T09:49:18.430Z,17.70
2019-05-20T09:51:47.534Z,17.03
2019-05-20T09:54:17.268Z,15.93
2019-05-20T09:56:46.678Z,18.63
2019-05-20T09:59:16.451Z,14.00
2019-05-20T10:01:45.966Z,15.80
2019-05-20T10:04:15.666Z,16.93
2019-05-20T10:06:45.236Z,16.87
2019-05-20T10:09:14.882Z,16.03
2019-05-20T10:11:44.208Z,18.10
2019-05-20T10:14:14.411Z,17.57
2019-05-20T10:17:18.599Z,16.40
2019-05-20T10:19:48.027Z,18.77
2019-05-20T10:22:18.122Z,18.27
2019-05-20T10:24:54.010Z,19.97
2019-05-20T10:27:23.780Z,21.90
2019-05-20T10:29:53.283Z,19.47
2019-05-20T10:32:23.058Z,18.77
2019-05-20T10:34:52.724Z,18.57
2019-05-20T10:37:22.312Z,18.47
2019-05-20T10:39:51.677Z,18.97
2019-05-20T10:42:26.805Z,19.37
2019-05-20T10:44:56.081Z,17.87
2019-05-20T10:47:25.349Z,18.57
2019-05-20T10:49:54.427Z,20.50
2019-05-20T10:52:23.569Z,18.60
2019-05-20T10:54:52.693Z,19.17
2019-05-20T10:57:21.716Z,20.30
2019-05-20T10:59:50.989Z,21.03
2019-05-20T11:02:20.168Z,26.50
2019-05-20T11:04:49.125Z,22.30
2019-05-20T11:07:24.233Z,21.97
2019-05-20T11:09:56.899Z,24.83
2019-05-20T11:12:26.028Z,21.27
2019-05-20T11:14:56.850Z,26.37
2019-05-20T11:17:26.181Z,26.67
2019-05-20T11:19:55.872Z,26.83
2019-05-20T11:22:24.907Z,25.53
2019-05-20T11:24:54.070Z,28.27
2019-05-20T11:27:23.819Z,27.93
2019-05-20T11:29:53.836Z,30.67
2019-05-20T11:32:22.874Z,30.83
2019-05-20T11:34:51.784Z,36.17
2019-05-20T11:37:24.960Z,34.43
2019-05-20T11:40:14.807Z,39.20
2019-05-20T11:42:46.656Z,39.13
2019-05-20T11:45:22.036Z,39.97
2019-05-20T11:48:32.233Z,40.80
2019-05-20T11:54:06.609Z,45.50
2019-05-20T11:56:36.270Z,42.73
2019-05-20T11:59:09.701Z,43.50
2019-05-20T12:01:40.863Z,44.47
2019-05-20T12:04:17.636Z,44.73
2019-05-20T12:07:22.731Z,42.20
2019-05-20T12:09:52.578Z,44.70
2019-05-20T12:12:26.483Z,53.40
2019-05-20T12:15:00.312Z,47.77
2019-05-20T12:17:36.878Z,47.60
2019-05-20T12:20:10.409Z,49.60
2019-05-20T12:22:38.795Z,51.13
2019-05-20T12:25:08.090Z,50.33
2019-05-20T12:27:37.689Z,50.23
2019-05-20T12:30:07.638Z,56.27
2019-05-20T12:32:40.418Z,56.60
2019-05-20T12:35:10.209Z,52.03
2019-05-20T12:37:40.208Z,49.97
2019-05-20T12:40:14.792Z,51.83
2019-05-20T12:42:47.036Z,53.27
2019-05-20T12:45:16.877Z,53.10
2019-05-20T12:47:46.250Z,53.90
2019-05-20T12:50:20.098Z,52.50
2019-05-20T12:52:49.742Z,51.37
2019-05-20T12:55:22.360Z,48.23
2019-05-20T12:58:00.063Z,48.77
2019-05-20T13:00:29.172Z,48.60
2019-05-20T13:03:00.663Z,51.87
2019-05-20T13:05:29.951Z,53.63
2019-05-20T13:07:59.408Z,58.60
2019-05-20T13:10:31.647Z,54.93
2019-05-20T13:13:00.403Z,53.37
2019-05-20T13:15:35.212Z,56.03
2019-05-20T13:18:03.904Z,56.60
2019-05-20T13:20:35.604Z,57.80
2019-05-20T13:23:10.433Z,55.30
2019-05-20T13:25:38.505Z,58.40
2019-05-20T13:28:07.427Z,55.80
2019-05-20T13:30:36.359Z,57.37
2019-05-20T13:33:05.372Z,65.13
2019-05-20T13:35:34.502Z,57.30
2019-05-20T13:38:03.828Z,60.13
2019-05-20T13:40:45.711Z,56.97
2019-05-20T13:43:03.432Z,61.77
2019-05-20T13:45:32.448Z,61.13
2019-05-20T13:48:02.360Z,61.77
2019-05-20T13:50:31.545Z,63.33
2019-05-20T13:53:00.761Z,60.77
2019-05-20T13:55:29.729Z,61.90
2019-05-20T13:58:00.214Z,61.80
2019-05-20T14:00:29.572Z,67.53
2019-05-20T14:02:58.651Z,63.33
2019-05-20T14:05:27.743Z,66.00
2019-05-20T14:07:57.181Z,66.00
2019-05-20T14:10:26.579Z,64.23
2019-05-20T14:12:55.453Z,70.60
2019-05-20T14:15:24.825Z,62.80
2019-05-20T14:17:53.746Z,65.43
2019-05-20T14:20:22.770Z,60.20
2019-05-20T14:22:51.884Z,63.37
2019-05-20T14:25:22.315Z,67.10
2019-05-20T14:27:52.596Z,62.13
2019-05-20T14:30:23.147Z,64.00
2019-05-20T14:32:52.107Z,64.73
2019-05-20T14:35:21.073Z,67.97
2019-05-20T14:37:50.115Z,62.57
2019-05-20T14:40:19.414Z,66.37
2019-05-20T14:42:49.061Z,62.77
2019-05-20T14:45:18.193Z,70.00
2019-05-20T14:47:47.621Z,65.60
2019-05-20T14:50:18.751Z,65.37
2019-05-20T14:52:48.540Z,69.00
2019-05-20T14:55:17.607Z,63.40
2019-05-20T14:57:46.592Z,65.40
2019-05-20T15:00:15.926Z,67.33
2019-05-20T15:02:44.867Z,69.90
2019-05-20T15:05:13.896Z,69.83
2019-05-20T15:07:42.914Z,66.03
2019-05-20T15:10:12.376Z,65.37
2019-05-20T15:12:41.740Z,64.10
2019-05-20T15:15:11.067Z,69.17
2019-05-20T15:17:45.393Z,67.17
2019-05-20T15:20:14.778Z,70.20
2019-05-20T15:22:43.955Z,71.70
2019-05-20T15:25:13.250Z,72.03
2019-05-20T15:27:42.341Z,67.17
2019-05-20T15:30:12.192Z,73.93
2019-05-20T15:32:44.768Z,67.83
2019-05-20T15:35:13.783Z,70.77
2019-05-20T15:37:43.091Z,69.17
2019-05-20T15:40:15.230Z,64.60
2019-05-20T15:42:44.220Z,67.13
2019-05-20T15:45:13.578Z,67.43
2019-05-20T15:47:42.684Z,69.20
2019-05-20T15:50:11.736Z,72.00
2019-05-20T15:52:40.762Z,71.00
2019-05-20T15:55:12.530Z,69.93
2019-05-20T15:57:46.527Z,70.93
2019-05-20T16:00:15.743Z,68.40
2019-05-20T16:02:44.940Z,65.63
2019-05-20T16:05:14.055Z,71.90
2019-05-20T16:07:45.888Z,72.50
2019-05-20T16:10:24.110Z,68.63
2019-05-20T16:12:53.219Z,70.80
2019-05-20T16:15:28.551Z,70.03
2019-05-20T16:17:57.691Z,71.50
2019-05-20T16:20:27.494Z,69.00
2019-05-20T16:22:56.679Z,69.07
2019-05-20T16:25:25.735Z,68.97
2019-05-20T16:27:54.802Z,73.03
2019-05-20T16:30:24.305Z,68.10
2019-05-20T16:32:53.343Z,76.17
2019-05-20T16:35:23.055Z,69.90
2019-05-20T16:37:52.073Z,72.10
2019-05-20T16:40:21.836Z,74.80
2019-05-20T16:42:54.465Z,73.13
2019-05-20T16:45:23.617Z,76.03
2019-05-20T16:47:55.324Z,70.90
2019-05-20T16:50:24.622Z,72.37
2019-05-20T16:52:55.026Z,70.23
2019-05-20T16:55:23.983Z,67.97
2019-05-20T16:57:53.071Z,67.53
2019-05-20T17:00:31.377Z,70.40
2019-05-20T17:02:52.922Z,71.40
2019-05-20T17:05:22.283Z,67.87
2019-05-20T17:07:51.330Z,65.87
2019-05-20T17:10:25.374Z,63.90
2019-05-20T17:13:01.294Z,66.03
2019-05-20T17:15:30.775Z,64.03
2019-05-20T17:17:59.908Z,62.57
2019-05-20T17:20:29.134Z,62.73
2019-05-20T17:22:58.351Z,62.23
2019-05-20T17:25:28.040Z,63.23
2019-05-20T17:27:57.163Z,60.37
2019-05-20T17:30:26.197Z,57.73
2019-05-20T17:32:55.379Z,56.17
2019-05-20T17:35:27.150Z,53.27
2019-05-20T17:37:57.649Z,55.50
2019-05-20T17:40:26.713Z,58.47
2019-05-20T17:42:58.859Z,55.27
2019-05-20T17:45:28.008Z,56.03
2019-05-20T17:47:57.070Z,54.97
2019-05-20T17:50:26.454Z,55.37
2019-05-20T17:52:57.745Z,56.73
2019-05-20T17:55:27.067Z,56.13
2019-05-20T17:57:59.499Z,51.17
2019-05-20T18:00:29.038Z,58.93
2019-05-20T18:03:07.857Z,55.77
2019-05-20T18:05:36.858Z,56.63
2019-05-20T18:08:06.374Z,61.27
2019-05-20T18:10:35.479Z,58.80
2019-05-20T18:13:07.454Z,58.43
2019-05-20T18:15:36.414Z,57.33
2019-05-20T18:18:07.059Z,60.90
2019-05-20T18:20:42.811Z,59.90
2019-05-20T18:23:11.890Z,62.63
2019-05-20T18:25:41.409Z,61.87
2019-05-20T18:28:10.502Z,59.70
2019-05-20T18:30:40.379Z,66.00
2019-05-20T18:33:37.471Z,62.90
2019-05-20T18:35:57.638Z,59.67
2019-05-20T18:38:27.254Z,60.50
2019-05-20T18:40:56.296Z,64.47
2019-05-20T18:43:28.244Z,62.87
2019-05-20T18:45:57.618Z,67.20
2019-05-20T18:48:27.302Z,65.33
2019-05-20T18:50:56.298Z,64.70
2019-05-20T18:53:25.325Z,61.23
2019-05-20T18:55:58.314Z,64.77
2019-05-20T18:58:27.571Z,72.10
2019-05-20T19:00:56.953Z,66.13
2019-05-20T19:03:26.926Z,67.53
2019-05-20T19:05:59.453Z,67.73
2019-05-20T19:08:31.648Z,66.10
2019-05-20T19:11:06.815Z,67.07
2019-05-20T19:13:35.983Z,67.23
2019-05-20T19:16:05.168Z,69.90
2019-05-20T19:18:37.408Z,73.53
2019-05-20T19:21:06.518Z,70.53
2019-05-20T19:23:35.619Z,70.60
2019-05-20T19:26:07.639Z,75.43
2019-05-20T19:28:37.013Z,74.40
2019-05-20T19:31:16.114Z,73.93
2019-05-20T19:34:19.552Z,70.83
2019-05-20T19:36:54.747Z,71.80
2019-05-20T19:39:24.386Z,73.23
2019-05-20T19:41:53.900Z,74.57
2019-05-20T19:44:23.717Z,77.27
2019-05-20T19:46:54.705Z,78.20
2019-05-20T19:49:25.025Z,78.50
2019-05-20T19:51:56.912Z,80.80
2019-05-20T19:54:32.503Z,79.87
2019-05-20T19:57:13.823Z,83.77
2019-05-20T19:59:43.434Z,87.93
2019-05-20T20:02:18.156Z,81.43
2019-05-20T20:05:50.674Z,86.80
2019-05-20T20:08:22.781Z,83.13
2019-05-20T20:10:52.890Z,85.23
2019-05-20T20:13:25.605Z,82.67
2019-05-20T20:15:55.023Z,79.97
2019-05-20T20:18:24.474Z,84.27
2019-05-20T20:20:53.658Z,77.00
2019-05-20T20:24:19.825Z,86.13
2019-05-20T20:26:49.510Z,80.67
2019-05-20T20:29:42.489Z,85.60
2019-05-20T20:32:14.986Z,80.93
2019-05-20T20:34:47.704Z,83.57
2019-05-20T20:37:26.154Z,88.17
2019-05-20T20:40:11.664Z,87.23
2019-05-20T20:42:55.847Z,90.83
2019-05-20T20:45:42.094Z,95.67
2019-05-20T20:48:16.727Z,82.83
2019-05-20T20:50:48.467Z,80.37
2019-05-20T20:53:30.517Z,77.03
2019-05-20T20:56:04.655Z,81.37
2019-05-20T20:58:34.238Z,84.70
2019-05-20T21:01:05.791Z,91.83
2019-05-20T21:03:35.240Z,102.37
2019-05-20T21:06:04.314Z,100.67
2019-05-20T21:08:33.579Z,97.53
2019-05-20T21:11:05.686Z,96.53
2019-05-20T21:13:37.686Z,94.63
2019-05-20T21:16:07.123Z,92.87
2019-05-20T21:18:36.394Z,81.43
2019-05-20T21:21:05.555Z,83.60
2019-05-20T21:23:37.909Z,89.83
2019-05-20T21:26:08.861Z,98.73
2019-05-20T21:28:37.768Z,99.70
2019-05-20T21:31:09.774Z,96.93
2019-05-20T21:33:42.901Z,100.73
2019-05-20T21:36:11.832Z,99.87
2019-05-20T21:38:46.900Z,105.07
2019-05-20T21:41:18.898Z,112.80
2019-05-20T21:43:51.388Z,118.63
2019-05-20T21:46:22.045Z,114.23
2019-05-20T21:48:51.213Z,123.40
2019-05-20T21:51:24.006Z,119.50
2019-05-20T21:54:02.316Z,124.27
2019-05-20T21:56:31.548Z,119.20
2019-05-20T21:59:03.472Z,126.23
2019-05-20T22:01:32.785Z,120.10
2019-05-20T22:04:01.882Z,120.77
2019-05-20T22:06:33.773Z,122.47
2019-05-20T22:09:12.880Z,128.57
2019-05-20T22:11:47.508Z,127.90
2019-05-20T22:14:16.667Z,128.73
2019-05-20T22:16:48.915Z,131.00
2019-05-20T22:19:21.323Z,131.33
2019-05-20T22:21:58.170Z,117.03
2019-05-20T22:24:30.079Z,121.40
2019-05-20T22:26:59.552Z,120.47
2019-05-20T22:29:28.955Z,113.70
2019-05-20T22:32:04.211Z,114.40
2019-05-20T22:34:33.780Z,110.33
2019-05-20T22:37:02.991Z,112.33
2019-05-20T22:39:32.056Z,115.90
2019-05-20T22:42:02.311Z,125.00
2019-05-20T22:44:36.192Z,126.57
2019-05-20T22:47:08.105Z,128.47
2019-05-20T22:49:37.717Z,124.83
2019-05-20T22:52:06.915Z,124.70
2019-05-20T22:54:36.009Z,129.47
2019-05-20T22:57:05.488Z,132.17
2019-05-20T22:59:34.591Z,129.70
2019-05-20T23:02:03.746Z,134.03
2019-05-20T23:04:32.837Z,130.63
2019-05-20T23:07:11.255Z,138.80
2019-05-20T23:09:40.297Z,145.17
2019-05-20T23:12:09.213Z,142.73
2019-05-20T23:14:38.470Z,145.10
2019-05-20T23:17:10.406Z,144.83
2019-05-20T23:19:41.987Z,138.90
2019-05-20T23:22:11.185Z,131.67
2019-05-20T23:24:40.187Z,133.13
2019-05-20T23:27:12.558Z,138.63
2019-05-20T23:29:41.741Z,135.10
2019-05-20T23:32:19.206Z,134.40
2019-05-20T23:34:48.462Z,124.90
2019-05-20T23:37:17.905Z,129.60
2019-05-20T23:39:47.166Z,122.20
2019-05-20T23:42:19.807Z,134.40
2019-05-20T23:44:49.540Z,133.20
2019-05-20T23:47:18.770Z,122.77
2019-05-20T23:49:47.870Z,111.73
2019-05-20T23:52:18.026Z,109.37
2019-05-20T23:54:47.365Z,107.17
2019-05-20T23:57:16.919Z,109.00
2019-05-20T23:59:45.903Z,94.43
